createdAt,value
2022-10-18T00:02:44.942Z,3.97
2022-10-18T00:07:50.344Z,4.50
2022-10-18T00:12:56.296Z,3.17
2022-10-18T00:18:01.944Z,3.13
2022-10-18T00:23:07.921Z,4.40
2022-10-18T00:28:13.443Z,5.97
2022-10-18T00:33:18.912Z,4.13
2022-10-18T00:38:24.434Z,7.17
2022-10-18T00:43:29.826Z,4.17
2022-10-18T00:48:35.468Z,4.07
2022-10-18T00:53:41.799Z,4.93
2022-10-18T00:58:50.331Z,4.77
2022-10-18T01:03:56.860Z,4.73
2022-10-18T01:09:14.062Z,4.83
2022-10-18T01:14:25.369Z,5.90
2022-10-18T01:20:06.672Z,6.80
2022-10-18T01:25:38.017Z,5.53
2022-10-18T01:30:49.385Z,5.90
2022-10-18T01:35:57.940Z,5.07
2022-10-18T01:41:05.907Z,5.70
2022-10-18T01:46:14.234Z,6.07
2022-10-18T01:51:27.784Z,6.07
2022-10-18T01:56:39.074Z,5.73
2022-10-18T02:02:06.106Z,6.50
2022-10-18T02:07:20.247Z,5.83
2022-10-18T02:12:27.097Z,6.63
2022-10-18T02:17:34.320Z,6.90
2022-10-18T02:22:42.818Z,6.27
2022-10-18T02:27:48.537Z,7.70
2022-10-18T02:32:56.985Z,7.47
2022-10-18T02:38:03.921Z,10.37
2022-10-18T02:43:09.464Z,11.33
2022-10-18T02:48:14.932Z,10.67
2022-10-18T02:53:20.315Z,8.77
2022-10-18T02:58:25.774Z,10.10
2022-10-18T03:03:31.228Z,9.67
2022-10-18T03:08:37.769Z,10.63
2022-10-18T03:13:43.283Z,10.90
2022-10-18T03:18:48.804Z,11.30
2022-10-18T03:23:54.251Z,10.67
2022-10-18T03:28:59.801Z,10.00
2022-10-18T03:34:05.385Z,8.83
2022-10-18T03:39:12.579Z,8.87
2022-10-18T03:44:18.112Z,9.97
2022-10-18T03:49:23.684Z,8.53
2022-10-18T03:54:29.166Z,7.53
2022-10-18T03:59:34.624Z,8.33
2022-10-18T04:04:40.102Z,7.70
2022-10-18T04:09:47.038Z,7.70
2022-10-18T04:14:55.350Z,9.23
2022-10-18T04:20:00.019Z,6.70
2022-10-18T04:25:06.229Z,6.27
2022-10-18T04:30:12.625Z,8.83
2022-10-18T04:35:18.278Z,9.67
2022-10-18T04:40:23.808Z,7.20
2022-10-18T04:45:29.261Z,7.10
2022-10-18T04:50:34.767Z,8.50
2022-10-18T04:55:43.340Z,9.37
2022-10-18T05:00:48.800Z,6.87
2022-10-18T05:06:01.739Z,8.13
2022-10-18T05:11:03.196Z,9.03
2022-10-18T05:16:08.800Z,7.70
2022-10-18T05:21:15.568Z,8.30
2022-10-18T05:26:20.957Z,11.80
2022-10-18T05:31:26.488Z,8.77
2022-10-18T05:36:32.002Z,9.70
2022-10-18T05:41:38.035Z,11.47
2022-10-18T05:46:43.505Z,13.17
2022-10-18T05:51:49.029Z,12.37
2022-10-18T05:56:54.685Z,12.83
2022-10-18T06:02:00.165Z,14.63
2022-10-18T06:07:07.419Z,10.83
2022-10-18T06:12:12.954Z,12.87
2022-10-18T06:17:18.525Z,11.40
2022-10-18T06:22:24.116Z,11.10
2022-10-18T06:27:31.925Z,10.87
2022-10-18T06:32:37.737Z,13.70
2022-10-18T06:42:59.971Z,11.50
2022-10-18T06:47:56.130Z,13.67
2022-10-18T06:53:03.235Z,12.83
2022-10-18T06:58:08.723Z,11.60
2022-10-18T07:03:14.592Z,13.30
2022-10-18T07:08:20.424Z,11.73
2022-10-18T07:13:32.520Z,10.63
2022-10-18T07:18:37.281Z,11.03
2022-10-18T07:23:46.259Z,12.10
2022-10-18T07:28:55.484Z,11.03
2022-10-18T07:34:01.599Z,10.93
2022-10-18T07:39:07.297Z,9.40
2022-10-18T07:44:12.753Z,12.80
2022-10-18T07:49:18.277Z,9.17
2022-10-18T07:54:23.741Z,11.23
2022-10-18T07:59:29.216Z,7.67
2022-10-18T08:04:34.757Z,8.13
2022-10-18T08:09:40.609Z,9.17
2022-10-18T08:14:47.170Z,9.00
2022-10-18T08:20:04.893Z,8.47
2022-10-18T08:24:59.870Z,8.73
2022-10-18T08:30:06.698Z,7.87
2022-10-18T08:35:12.121Z,9.50
2022-10-18T08:40:20.471Z,8.37
2022-10-18T08:45:41.961Z,6.83
2022-10-18T08:50:38.774Z,8.53
2022-10-18T08:55:47.458Z,8.37
2022-10-18T09:01:10.456Z,7.87
2022-10-18T09:06:30.790Z,6.20
2022-10-18T09:12:01.028Z,6.77
2022-10-18T09:17:08.305Z,7.33
2022-10-18T09:22:20.327Z,7.13
2022-10-18T09:27:28.744Z,7.13
2022-10-18T09:32:55.319Z,8.60
2022-10-18T09:38:06.884Z,8.23
2022-10-18T09:43:21.559Z,9.93
2022-10-18T09:48:32.936Z,7.70
2022-10-18T09:53:53.388Z,7.90
2022-10-18T09:59:01.274Z,8.33
2022-10-18T10:04:07.745Z,8.57
2022-10-18T10:09:18.193Z,12.67
2022-10-18T10:14:30.217Z,9.83
2022-10-18T10:20:04.040Z,9.90
2022-10-18T10:25:12.640Z,9.10
2022-10-18T10:30:26.822Z,11.20
2022-10-18T10:35:53.114Z,11.03
2022-10-18T10:40:49.849Z,9.13
2022-10-18T10:46:03.975Z,8.97
2022-10-18T10:51:11.894Z,10.57
2022-10-18T10:56:20.334Z,10.97
2022-10-18T11:01:30.477Z,11.27
2022-10-18T11:06:38.933Z,11.60
2022-10-18T11:11:48.996Z,10.27
2022-10-18T11:17:17.301Z,10.07
2022-10-18T11:22:25.384Z,12.30
2022-10-18T11:27:39.609Z,11.07
2022-10-18T11:33:04.617Z,13.93
2022-10-18T11:38:18.392Z,13.80
2022-10-18T11:44:00.648Z,10.80
2022-10-18T11:48:51.556Z,11.80
2022-10-18T11:54:27.236Z,11.47
2022-10-18T11:59:35.762Z,11.17
2022-10-18T12:04:59.812Z,12.50
2022-10-18T12:09:56.303Z,10.37
2022-10-18T12:15:04.795Z,9.80
2022-10-18T12:20:13.389Z,10.60
2022-10-18T12:25:20.091Z,10.20
2022-10-18T12:30:46.774Z,10.23
2022-10-18T12:36:18.202Z,8.83
2022-10-18T12:41:29.461Z,7.17
2022-10-18T12:46:55.876Z,7.73
2022-10-18T12:52:04.319Z,9.07
2022-10-18T12:57:21.655Z,7.20
2022-10-18T13:02:30.003Z,6.63
2022-10-18T13:07:39.471Z,6.63
2022-10-18T13:12:50.828Z,5.43
2022-10-18T13:18:08.110Z,5.53
2022-10-18T13:23:38.055Z,6.67
2022-10-18T13:28:58.124Z,7.90
2022-10-18T13:34:26.822Z,6.67
2022-10-18T13:39:34.052Z,7.00
2022-10-18T13:44:43.691Z,6.87
2022-10-18T13:50:01.030Z,8.43
2022-10-18T13:55:44.771Z,5.73
2022-10-18T14:01:02.666Z,8.33
2022-10-18T14:06:36.723Z,5.10
2022-10-18T14:11:56.769Z,6.23
2022-10-18T14:17:32.499Z,9.80
2022-10-18T14:23:05.258Z,4.53
2022-10-18T14:28:16.606Z,4.80
2022-10-18T14:33:39.886Z,4.50
2022-10-18T14:39:00.496Z,3.30
2022-10-18T14:44:29.839Z,4.33
2022-10-18T14:49:35.365Z,4.17
2022-10-18T14:54:41.051Z,5.33
2022-10-18T14:59:57.196Z,4.60
2022-10-18T15:05:23.263Z,4.70
2022-10-18T15:10:34.235Z,3.83
2022-10-18T15:15:40.715Z,3.77
2022-10-18T15:20:46.253Z,3.40
2022-10-18T15:25:53.775Z,3.07
2022-10-18T15:31:01.374Z,4.20
2022-10-18T15:36:12.682Z,4.57
2022-10-18T15:41:53.146Z,3.67
2022-10-18T15:47:23.956Z,4.70
2022-10-18T15:52:37.484Z,8.53
2022-10-18T15:57:40.606Z,4.93
2022-10-18T16:02:46.531Z,7.47
2022-10-18T16:07:55.063Z,3.33
2022-10-18T16:13:00.626Z,6.00
2022-10-18T16:18:06.137Z,4.30
2022-10-18T16:23:24.261Z,5.97
2022-10-18T16:28:31.452Z,5.83
2022-10-18T16:33:37.089Z,3.60
2022-10-18T16:38:42.938Z,7.67
2022-10-18T16:43:50.246Z,7.90
2022-10-18T16:48:56.897Z,7.10
2022-10-18T16:54:02.285Z,9.47
2022-10-18T16:59:07.804Z,8.05
2022-10-18T17:04:13.261Z,7.43
2022-10-18T17:09:18.785Z,7.43
2022-10-18T17:14:24.304Z,7.03
2022-10-18T17:19:29.919Z,6.57
2022-10-18T17:24:35.371Z,9.03
2022-10-18T17:29:41.140Z,8.50
2022-10-18T17:34:46.582Z,6.57
2022-10-18T17:39:52.113Z,8.57
2022-10-18T17:44:57.860Z,7.97
2022-10-18T17:50:03.406Z,6.23
2022-10-18T17:55:09.564Z,6.47
2022-10-18T18:00:16.468Z,11.43
2022-10-18T18:05:21.933Z,6.93
2022-10-18T18:10:27.475Z,7.87
2022-10-18T18:15:33.123Z,13.20
2022-10-18T18:20:38.689Z,5.43
2022-10-18T18:25:44.635Z,8.73
2022-10-18T18:30:51.731Z,5.73
2022-10-18T18:35:58.450Z,11.17
2022-10-18T18:41:24.878Z,9.13
2022-10-18T18:46:34.451Z,5.70
2022-10-18T18:51:40.917Z,4.27
2022-10-18T18:56:46.644Z,10.13
2022-10-18T19:01:52.553Z,4.80
2022-10-18T19:06:58.208Z,5.47
2022-10-18T19:12:03.672Z,6.67
2022-10-18T19:17:09.655Z,7.07
2022-10-18T19:22:15.183Z,7.13
2022-10-18T19:27:20.648Z,9.70
2022-10-18T19:32:26.168Z,6.43
2022-10-18T19:37:32.009Z,6.17
2022-10-18T19:42:38.285Z,9.33
2022-10-18T19:47:45.193Z,7.77
2022-10-18T19:52:50.979Z,7.43
2022-10-18T19:57:56.562Z,7.50
2022-10-18T20:03:02.033Z,8.20
2022-10-18T20:08:07.749Z,6.70
2022-10-18T20:13:13.495Z,9.27
2022-10-18T20:18:20.598Z,8.83
2022-10-18T20:23:26.263Z,10.37
2022-10-18T20:28:31.820Z,6.13
2022-10-18T20:33:37.704Z,6.03
2022-10-18T20:38:44.796Z,5.67
2022-10-18T20:44:01.917Z,8.80
2022-10-18T20:49:09.036Z,5.60
2022-10-18T20:54:14.485Z,6.83
2022-10-18T20:59:20.028Z,5.30
2022-10-18T21:04:25.625Z,9.30
2022-10-18T21:09:31.153Z,6.33
2022-10-18T21:14:36.612Z,7.17
2022-10-18T21:19:43.046Z,10.17
2022-10-18T21:24:48.601Z,8.00
2022-10-18T21:29:54.070Z,8.67
2022-10-18T21:35:00.241Z,5.97
2022-10-18T21:40:06.725Z,5.00
2022-10-18T21:45:12.551Z,8.43
2022-10-18T21:50:18.196Z,7.50
2022-10-18T21:55:23.848Z,4.37
2022-10-18T22:00:29.312Z,5.47
2022-10-18T22:05:34.689Z,7.73
2022-10-18T22:10:40.525Z,5.13
2022-10-18T22:15:46.001Z,10.00
2022-10-18T22:20:56.961Z,4.90
2022-10-18T22:26:14.730Z,8.10
2022-10-18T22:31:24.961Z,4.47
2022-10-18T22:36:31.582Z,6.80
2022-10-18T22:41:37.518Z,3.70
2022-10-18T22:46:44.025Z,4.37
2022-10-18T22:51:49.470Z,5.93
2022-10-18T22:56:54.926Z,5.03
2022-10-18T23:02:00.813Z,5.33
2022-10-18T23:07:06.269Z,3.53
2022-10-18T23:12:11.647Z,3.77
2022-10-18T23:17:17.173Z,4.43
2022-10-18T23:22:22.568Z,3.50
2022-10-18T23:27:30.044Z,3.23
2022-10-18T23:32:36.178Z,4.90
2022-10-18T23:37:41.807Z,4.77
2022-10-18T23:42:47.342Z,3.27
2022-10-18T23:47:52.728Z,1.90
2022-10-18T23:52:58.989Z,3.07
2022-10-18T23:58:04.661Z,2.37
